sensor_id;sensor_type;location;lat;lon;timestamp;P1;durP1;ratioP1;P2;durP2;ratioP2
45650;SDS011;31365;48.858;8.530;2023-03-12T00:00:14;7.13;;;2.90;;
45650;SDS011;31365;48.858;8.530;2023-03-12T00:03:05;7.00;;;3.00;;
45650;SDS011;31365;48.858;8.530;2023-03-12T00:06:07;5.40;;;2.70;;
45650;SDS011;31365;48.858;8.530;2023-03-12T00:09:03;3.60;;;2.70;;
45650;SDS011;31365;48.858;8.530;2023-03-12T00:12:20;7.47;;;3.03;;
45650;SDS011;31365;48.858;8.530;2023-03-12T03:21:13;2.20;;;1.30;;
45650;SDS011;31365;48.858;8.530;2023-03-12T03:23:44;2.80;;;1.60;;
45650;SDS011;31365;48.858;8.530;2023-03-12T03:26:16;4.67;;;1.43;;
45650;SDS011;31365;48.858;8.530;2023-03-12T03:28:48;2.53;;;1.50;;
45650;SDS011;31365;48.858;8.530;2023-03-12T03:31:17;2.83;;;1.60;;
45650;SDS011;31365;48.858;8.530;2023-03-12T03:33:47;3.70;;;1.70;;
45650;SDS011;31365;48.858;8.530;2023-03-12T03:36:18;2.57;;;1.40;;
45650;SDS011;31365;48.858;8.530;2023-03-12T03:38:54;3.93;;;1.30;;
45650;SDS011;31365;48.858;8.530;2023-03-12T03:41:23;3.73;;;1.60;;
45650;SDS011;31365;48.858;8.530;2023-03-12T03:43:54;2.40;;;1.60;;
45650;SDS011;31365;48.858;8.530;2023-03-12T03:46:26;4.10;;;1.70;;
45650;SDS011;31365;48.858;8.530;2023-03-12T03:49:00;3.80;;;1.63;;
45650;SDS011;31365;48.858;8.530;2023-03-12T03:51:32;2.80;;;1.70;;
45650;SDS011;31365;48.858;8.530;2023-03-12T03:54:06;2.30;;;1.43;;
45650;SDS011;31365;48.858;8.530;2023-03-12T03:56:35;2.57;;;1.77;;
45650;SDS011;31365;48.858;8.530;2023-03-12T03:59:04;2.40;;;1.50;;
45650;SDS011;31365;48.858;8.530;2023-03-12T04:01:36;2.30;;;1.57;;
45650;SDS011;31365;48.858;8.530;2023-03-12T04:04:05;4.10;;;1.93;;
45650;SDS011;31365;48.858;8.530;2023-03-12T04:06:36;1.63;;;1.30;;
45650;SDS011;31365;48.858;8.530;2023-03-12T04:09:05;2.07;;;1.40;;
45650;SDS011;31365;48.858;8.530;2023-03-12T04:11:36;1.97;;;1.43;;
45650;SDS011;31365;48.858;8.530;2023-03-12T04:14:07;2.90;;;1.80;;
45650;SDS011;31365;48.858;8.530;2023-03-12T04:16:38;3.47;;;2.03;;
45650;SDS011;31365;48.858;8.530;2023-03-12T04:19:07;3.30;;;1.90;;
45650;SDS011;31365;48.858;8.530;2023-03-12T04:21:37;3.07;;;1.70;;
45650;SDS011;31365;48.858;8.530;2023-03-12T04:24:06;2.30;;;1.70;;
45650;SDS011;31365;48.858;8.530;2023-03-12T04:26:41;3.37;;;2.30;;
45650;SDS011;31365;48.858;8.530;2023-03-12T04:29:11;2.00;;;1.70;;
45650;SDS011;31365;48.858;8.530;2023-03-12T04:31:40;2.20;;;2.00;;
45650;SDS011;31365;48.858;8.530;2023-03-12T04:34:10;4.93;;;2.10;;
45650;SDS011;31365;48.858;8.530;2023-03-12T04:36:45;3.70;;;2.00;;
45650;SDS011;31365;48.858;8.530;2023-03-12T04:39:15;2.77;;;1.63;;
45650;SDS011;31365;48.858;8.530;2023-03-12T04:41:48;2.47;;;1.57;;
45650;SDS011;31365;48.858;8.530;2023-03-12T04:44:17;2.93;;;1.60;;
45650;SDS011;31365;48.858;8.530;2023-03-12T04:46:47;2.73;;;1.40;;
45650;SDS011;31365;48.858;8.530;2023-03-12T04:49:18;2.13;;;1.40;;
45650;SDS011;31365;48.858;8.530;2023-03-12T04:51:49;1.97;;;1.40;;
45650;SDS011;31365;48.858;8.530;2023-03-12T04:54:18;1.93;;;1.40;;
45650;SDS011;31365;48.858;8.530;2023-03-12T04:56:48;2.30;;;1.30;;
45650;SDS011;31365;48.858;8.530;2023-03-12T04:59:20;2.17;;;1.20;;
45650;SDS011;31365;48.858;8.530;2023-03-12T05:01:49;2.10;;;1.67;;
45650;SDS011;31365;48.858;8.530;2023-03-12T05:04:23;3.93;;;2.40;;
45650;SDS011;31365;48.858;8.530;2023-03-12T05:06:54;2.73;;;1.73;;
45650;SDS011;31365;48.858;8.530;2023-03-12T05:09:23;2.83;;;1.77;;
45650;SDS011;31365;48.858;8.530;2023-03-12T05:11:51;4.53;;;1.50;;
45650;SDS011;31365;48.858;8.530;2023-03-12T05:14:21;3.23;;;1.47;;
45650;SDS011;31365;48.858;8.530;2023-03-12T05:16:50;2.30;;;1.50;;
45650;SDS011;31365;48.858;8.530;2023-03-12T05:19:19;4.97;;;1.80;;
45650;SDS011;31365;48.858;8.530;2023-03-12T05:21:47;4.57;;;2.63;;
45650;SDS011;31365;48.858;8.530;2023-03-12T05:24:17;4.30;;;2.47;;
45650;SDS011;31365;48.858;8.530;2023-03-12T05:26:47;3.87;;;1.77;;
45650;SDS011;31365;48.858;8.530;2023-03-12T05:29:20;4.87;;;2.00;;
45650;SDS011;31365;48.858;8.530;2023-03-12T05:31:50;2.90;;;1.87;;
45650;SDS011;31365;48.858;8.530;2023-03-12T05:34:20;2.77;;;1.77;;
45650;SDS011;31365;48.858;8.530;2023-03-12T05:36:48;3.90;;;2.03;;
45650;SDS011;31365;48.858;8.530;2023-03-12T05:39:23;2.17;;;1.60;;
45650;SDS011;31365;48.858;8.530;2023-03-12T05:41:56;4.30;;;1.60;;
45650;SDS011;31365;48.858;8.530;2023-03-12T05:44:25;3.40;;;1.60;;
45650;SDS011;31365;48.858;8.530;2023-03-12T05:46:54;1.47;;;1.37;;
45650;SDS011;31365;48.858;8.530;2023-03-12T05:49:25;2.27;;;1.70;;
45650;SDS011;31365;48.858;8.530;2023-03-12T05:51:55;3.23;;;1.97;;
45650;SDS011;31365;48.858;8.530;2023-03-12T05:54:26;2.43;;;1.57;;
45650;SDS011;31365;48.858;8.530;2023-03-12T05:56:55;2.90;;;1.50;;
45650;SDS011;31365;48.858;8.530;2023-03-12T05:59:25;2.30;;;1.70;;
45650;SDS011;31365;48.858;8.530;2023-03-12T06:01:54;3.60;;;1.40;;
45650;SDS011;31365;48.858;8.530;2023-03-12T06:04:24;1.97;;;1.50;;
45650;SDS011;31365;48.858;8.530;2023-03-12T06:06:53;3.87;;;1.77;;
45650;SDS011;31365;48.858;8.530;2023-03-12T06:09:21;3.07;;;1.70;;
45650;SDS011;31365;48.858;8.530;2023-03-12T06:11:52;4.77;;;1.90;;
45650;SDS011;31365;48.858;8.530;2023-03-12T06:14:21;4.07;;;2.00;;
45650;SDS011;31365;48.858;8.530;2023-03-12T06:16:49;3.30;;;1.80;;
45650;SDS011;31365;48.858;8.530;2023-03-12T06:19:17;2.10;;;1.73;;
45650;SDS011;31365;48.858;8.530;2023-03-12T06:21:48;3.33;;;2.00;;
45650;SDS011;31365;48.858;8.530;2023-03-12T06:24:16;3.43;;;1.83;;
45650;SDS011;31365;48.858;8.530;2023-03-12T06:26:53;2.77;;;1.73;;
45650;SDS011;31365;48.858;8.530;2023-03-12T06:29:22;4.13;;;2.13;;
45650;SDS011;31365;48.858;8.530;2023-03-12T06:31:50;2.90;;;1.90;;
45650;SDS011;31365;48.858;8.530;2023-03-12T06:34:18;2.67;;;2.00;;
45650;SDS011;31365;48.858;8.530;2023-03-12T06:36:47;4.10;;;2.17;;
45650;SDS011;31365;48.858;8.530;2023-03-12T06:39:15;1.70;;;1.60;;
45650;SDS011;31365;48.858;8.530;2023-03-12T06:41:44;2.17;;;1.30;;
45650;SDS011;31365;48.858;8.530;2023-03-12T06:44:13;4.77;;;1.87;;
45650;SDS011;31365;48.858;8.530;2023-03-12T06:46:43;3.00;;;2.03;;
45650;SDS011;31365;48.858;8.530;2023-03-12T06:49:11;4.33;;;3.30;;
45650;SDS011;31365;48.858;8.530;2023-03-12T06:51:40;3.87;;;3.47;;
45650;SDS011;31365;48.858;8.530;2023-03-12T06:54:09;3.20;;;2.37;;
45650;SDS011;31365;48.858;8.530;2023-03-12T06:56:37;3.33;;;1.97;;
45650;SDS011;31365;48.858;8.530;2023-03-12T06:59:06;5.17;;;3.97;;
45650;SDS011;31365;48.858;8.530;2023-03-12T07:01:36;3.93;;;1.90;;
45650;SDS011;31365;48.858;8.530;2023-03-12T07:04:05;2.80;;;2.00;;
45650;SDS011;31365;48.858;8.530;2023-03-12T07:06:33;3.70;;;1.97;;
45650;SDS011;31365;48.858;8.530;2023-03-12T07:09:01;2.60;;;2.00;;
45650;SDS011;31365;48.858;8.530;2023-03-12T07:11:30;4.03;;;1.93;;
45650;SDS011;31365;48.858;8.530;2023-03-12T07:13:59;2.37;;;1.70;;
45650;SDS011;31365;48.858;8.530;2023-03-12T07:16:27;3.10;;;1.57;;
45650;SDS011;31365;48.858;8.530;2023-03-12T07:18:58;3.07;;;2.00;;
45650;SDS011;31365;48.858;8.530;2023-03-12T07:21:26;3.20;;;2.10;;
45650;SDS011;31365;48.858;8.530;2023-03-12T07:23:55;3.63;;;2.60;;
45650;SDS011;31365;48.858;8.530;2023-03-12T07:26:23;7.90;;;2.93;;
45650;SDS011;31365;48.858;8.530;2023-03-12T07:28:51;4.17;;;3.17;;
45650;SDS011;31365;48.858;8.530;2023-03-12T07:31:20;4.03;;;3.00;;
45650;SDS011;31365;48.858;8.530;2023-03-12T07:33:50;3.53;;;3.20;;
45650;SDS011;31365;48.858;8.530;2023-03-12T07:36:20;4.83;;;3.70;;
45650;SDS011;31365;48.858;8.530;2023-03-12T07:38:49;4.67;;;3.33;;
45650;SDS011;31365;48.858;8.530;2023-03-12T07:41:17;4.03;;;2.73;;
45650;SDS011;31365;48.858;8.530;2023-03-12T07:43:46;5.70;;;2.80;;
45650;SDS011;31365;48.858;8.530;2023-03-12T07:46:14;3.37;;;2.40;;
45650;SDS011;31365;48.858;8.530;2023-03-12T07:48:43;6.10;;;5.50;;
45650;SDS011;31365;48.858;8.530;2023-03-12T07:51:11;3.83;;;3.27;;
45650;SDS011;31365;48.858;8.530;2023-03-12T07:53:41;4.47;;;3.50;;
45650;SDS011;31365;48.858;8.530;2023-03-12T07:56:10;3.53;;;2.50;;
45650;SDS011;31365;48.858;8.530;2023-03-12T07:58:38;3.23;;;2.57;;
45650;SDS011;31365;48.858;8.530;2023-03-12T08:01:07;2.23;;;2.03;;
45650;SDS011;31365;48.858;8.530;2023-03-12T08:03:35;2.30;;;1.80;;
45650;SDS011;31365;48.858;8.530;2023-03-12T08:06:05;5.30;;;1.83;;
45650;SDS011;31365;48.858;8.530;2023-03-12T08:08:33;3.20;;;2.17;;
45650;SDS011;31365;48.858;8.530;2023-03-12T08:11:05;4.03;;;2.53;;
45650;SDS011;31365;48.858;8.530;2023-03-12T08:13:34;2.83;;;2.20;;
45650;SDS011;31365;48.858;8.530;2023-03-12T08:16:03;2.97;;;2.57;;
45650;SDS011;31365;48.858;8.530;2023-03-12T08:18:35;4.50;;;2.80;;
45650;SDS011;31365;48.858;8.530;2023-03-12T08:21:04;3.87;;;2.40;;
45650;SDS011;31365;48.858;8.530;2023-03-12T08:23:32;4.73;;;3.80;;
45650;SDS011;31365;48.858;8.530;2023-03-12T08:26:01;5.30;;;4.07;;
45650;SDS011;31365;48.858;8.530;2023-03-12T08:28:30;4.23;;;3.10;;
45650;SDS011;31365;48.858;8.530;2023-03-12T08:30:59;4.23;;;3.80;;
45650;SDS011;31365;48.858;8.530;2023-03-12T08:33:28;5.27;;;3.13;;
45650;SDS011;31365;48.858;8.530;2023-03-12T08:35:56;4.53;;;2.83;;
45650;SDS011;31365;48.858;8.530;2023-03-12T08:38:24;5.27;;;2.97;;
45650;SDS011;31365;48.858;8.530;2023-03-12T08:40:53;3.10;;;2.80;;
45650;SDS011;31365;48.858;8.530;2023-03-12T08:43:23;5.07;;;2.60;;
45650;SDS011;31365;48.858;8.530;2023-03-12T08:45:56;4.13;;;2.60;;
45650;SDS011;31365;48.858;8.530;2023-03-12T08:48:27;3.23;;;2.93;;
45650;SDS011;31365;48.858;8.530;2023-03-12T08:50:58;5.20;;;3.00;;
45650;SDS011;31365;48.858;8.530;2023-03-12T08:53:29;4.77;;;2.47;;
45650;SDS011;31365;48.858;8.530;2023-03-12T08:55:59;9.37;;;4.40;;
45650;SDS011;31365;48.858;8.530;2023-03-12T08:58:29;6.50;;;4.63;;
45650;SDS011;31365;48.858;8.530;2023-03-12T09:00:59;6.60;;;4.20;;
45650;SDS011;31365;48.858;8.530;2023-03-12T09:03:28;8.70;;;5.27;;
45650;SDS011;31365;48.858;8.530;2023-03-12T09:06:01;10.50;;;5.87;;
45650;SDS011;31365;48.858;8.530;2023-03-12T09:08:35;5.13;;;3.60;;
45650;SDS011;31365;48.858;8.530;2023-03-12T09:11:05;3.93;;;3.53;;
45650;SDS011;31365;48.858;8.530;2023-03-12T09:13:37;4.40;;;2.90;;
45650;SDS011;31365;48.858;8.530;2023-03-12T09:16:27;5.20;;;3.83;;
45650;SDS011;31365;48.858;8.530;2023-03-12T09:18:56;0.90;;;0.90;;
45650;SDS011;31365;48.858;8.530;2023-03-12T09:21:24;0.90;;;0.90;;
45650;SDS011;31365;48.858;8.530;2023-03-12T09:23:53;1.20;;;1.10;;
45650;SDS011;31365;48.858;8.530;2023-03-12T09:26:21;1.20;;;1.10;;
45650;SDS011;31365;48.858;8.530;2023-03-12T09:28:50;1.50;;;1.40;;
45650;SDS011;31365;48.858;8.530;2023-03-12T09:31:19;4.97;;;4.30;;
45650;SDS011;31365;48.858;8.530;2023-03-12T09:33:49;1.90;;;1.50;;
45650;SDS011;31365;48.858;8.530;2023-03-12T09:36:19;1.87;;;1.53;;
45650;SDS011;31365;48.858;8.530;2023-03-12T09:38:47;1.80;;;1.70;;
45650;SDS011;31365;48.858;8.530;2023-03-12T09:41:17;3.77;;;2.47;;
45650;SDS011;31365;48.858;8.530;2023-03-12T09:43:49;2.57;;;2.33;;
45650;SDS011;31365;48.858;8.530;2023-03-12T09:46:26;2.23;;;1.50;;
45650;SDS011;31365;48.858;8.530;2023-03-12T09:49:04;4.40;;;2.53;;
45650;SDS011;31365;48.858;8.530;2023-03-12T09:51:42;2.90;;;1.60;;
45650;SDS011;31365;48.858;8.530;2023-03-12T09:54:21;1.70;;;1.60;;
45650;SDS011;31365;48.858;8.530;2023-03-12T09:56:59;4.03;;;2.50;;
45650;SDS011;31365;48.858;8.530;2023-03-12T09:59:37;8.43;;;2.60;;
45650;SDS011;31365;48.858;8.530;2023-03-12T10:02:12;5.53;;;3.13;;
45650;SDS011;31365;48.858;8.530;2023-03-12T10:05:23;4.70;;;2.53;;
45650;SDS011;31365;48.858;8.530;2023-03-12T10:08:04;3.80;;;1.93;;
45650;SDS011;31365;48.858;8.530;2023-03-12T10:10:52;5.00;;;2.67;;
45650;SDS011;31365;48.858;8.530;2023-03-12T10:16:38;6.23;;;3.60;;
45650;SDS011;31365;48.858;8.530;2023-03-12T10:19:25;7.97;;;3.73;;
45650;SDS011;31365;48.858;8.530;2023-03-12T10:22:17;5.70;;;2.47;;
45650;SDS011;31365;48.858;8.530;2023-03-12T10:25:00;5.50;;;2.60;;
45650;SDS011;31365;48.858;8.530;2023-03-12T10:27:42;8.77;;;4.20;;
45650;SDS011;31365;48.858;8.530;2023-03-12T10:30:13;6.77;;;3.57;;
45650;SDS011;31365;48.858;8.530;2023-03-12T10:32:47;3.97;;;2.60;;
45650;SDS011;31365;48.858;8.530;2023-03-12T10:35:21;5.77;;;3.63;;
45650;SDS011;31365;48.858;8.530;2023-03-12T10:37:52;7.13;;;3.03;;
45650;SDS011;31365;48.858;8.530;2023-03-12T10:40:25;5.73;;;2.83;;
45650;SDS011;31365;48.858;8.530;2023-03-12T10:42:56;4.67;;;3.00;;
45650;SDS011;31365;48.858;8.530;2023-03-12T10:45:26;5.00;;;3.20;;
45650;SDS011;31365;48.858;8.530;2023-03-12T10:48:03;3.90;;;2.63;;
45650;SDS011;31365;48.858;8.530;2023-03-12T10:50:35;5.70;;;3.17;;
45650;SDS011;31365;48.858;8.530;2023-03-12T10:53:18;5.40;;;3.17;;
45650;SDS011;31365;48.858;8.530;2023-03-12T10:55:59;6.03;;;3.20;;
45650;SDS011;31365;48.858;8.530;2023-03-12T10:58:33;5.03;;;2.43;;
45650;SDS011;31365;48.858;8.530;2023-03-12T11:01:04;4.70;;;2.53;;
45650;SDS011;31365;48.858;8.530;2023-03-12T11:03:45;6.07;;;2.83;;
45650;SDS011;31365;48.858;8.530;2023-03-12T11:06:19;3.83;;;2.10;;
45650;SDS011;31365;48.858;8.530;2023-03-12T11:09:02;4.80;;;2.77;;
45650;SDS011;31365;48.858;8.530;2023-03-12T11:11:42;7.10;;;4.03;;
45650;SDS011;31365;48.858;8.530;2023-03-12T11:14:15;5.97;;;2.70;;
45650;SDS011;31365;48.858;8.530;2023-03-12T11:16:46;6.33;;;2.43;;
45650;SDS011;31365;48.858;8.530;2023-03-12T11:19:25;4.10;;;2.43;;
45650;SDS011;31365;48.858;8.530;2023-03-12T11:22:28;9.17;;;4.00;;
45650;SDS011;31365;48.858;8.530;2023-03-12T11:25:01;7.23;;;2.67;;
45650;SDS011;31365;48.858;8.530;2023-03-12T11:27:55;5.20;;;2.90;;
45650;SDS011;31365;48.858;8.530;2023-03-12T11:30:28;5.23;;;2.30;;
45650;SDS011;31365;48.858;8.530;2023-03-12T11:33:07;10.63;;;5.40;;
45650;SDS011;31365;48.858;8.530;2023-03-12T11:35:39;5.90;;;2.50;;
45650;SDS011;31365;48.858;8.530;2023-03-12T11:38:24;4.03;;;2.30;;
45650;SDS011;31365;48.858;8.530;2023-03-12T11:41:05;4.77;;;3.17;;
45650;SDS011;31365;48.858;8.530;2023-03-12T11:44:02;6.77;;;3.20;;
45650;SDS011;31365;48.858;8.530;2023-03-12T11:47:04;4.07;;;2.40;;
45650;SDS011;31365;48.858;8.530;2023-03-12T11:49:50;6.63;;;2.47;;
45650;SDS011;31365;48.858;8.530;2023-03-12T11:52:36;6.50;;;2.53;;
45650;SDS011;31365;48.858;8.530;2023-03-12T11:55:34;7.10;;;2.60;;
45650;SDS011;31365;48.858;8.530;2023-03-12T12:01:24;10.87;;;6.13;;
45650;SDS011;31365;48.858;8.530;2023-03-12T12:04:27;8.57;;;5.17;;
45650;SDS011;31365;48.858;8.530;2023-03-12T12:07:18;6.40;;;3.33;;
45650;SDS011;31365;48.858;8.530;2023-03-12T12:10:12;8.57;;;3.33;;
45650;SDS011;31365;48.858;8.530;2023-03-12T12:12:58;5.23;;;2.60;;
45650;SDS011;31365;48.858;8.530;2023-03-12T12:15:42;6.07;;;2.60;;
45650;SDS011;31365;48.858;8.530;2023-03-12T12:18:28;8.50;;;4.10;;
45650;SDS011;31365;48.858;8.530;2023-03-12T12:21:21;5.37;;;2.50;;
45650;SDS011;31365;48.858;8.530;2023-03-12T12:24:26;5.80;;;3.23;;
45650;SDS011;31365;48.858;8.530;2023-03-12T12:40:36;3.43;;;1.93;;
45650;SDS011;31365;48.858;8.530;2023-03-12T12:43:20;5.97;;;3.20;;
45650;SDS011;31365;48.858;8.530;2023-03-12T12:45:55;8.43;;;3.70;;
45650;SDS011;31365;48.858;8.530;2023-03-12T12:48:29;6.77;;;3.20;;
45650;SDS011;31365;48.858;8.530;2023-03-12T12:51:04;7.10;;;3.10;;
45650;SDS011;31365;48.858;8.530;2023-03-12T12:53:39;6.63;;;3.57;;
45650;SDS011;31365;48.858;8.530;2023-03-12T12:56:19;10.33;;;4.23;;
45650;SDS011;31365;48.858;8.530;2023-03-12T13:02:01;9.83;;;3.00;;
45650;SDS011;31365;48.858;8.530;2023-03-12T13:04:42;8.97;;;3.33;;
45650;SDS011;31365;48.858;8.530;2023-03-12T13:07:27;7.70;;;3.57;;
45650;SDS011;31365;48.858;8.530;2023-03-12T13:10:05;7.93;;;3.30;;
45650;SDS011;31365;48.858;8.530;2023-03-12T13:13:28;9.10;;;4.00;;
45650;SDS011;31365;48.858;8.530;2023-03-12T13:18:57;11.90;;;4.13;;
45650;SDS011;31365;48.858;8.530;2023-03-12T13:21:29;11.03;;;4.30;;
45650;SDS011;31365;48.858;8.530;2023-03-12T13:24:09;9.67;;;3.30;;
45650;SDS011;31365;48.858;8.530;2023-03-12T13:26:52;10.27;;;3.70;;
45650;SDS011;31365;48.858;8.530;2023-03-12T13:29:37;7.93;;;3.63;;
45650;SDS011;31365;48.858;8.530;2023-03-12T13:32:09;9.63;;;3.13;;
45650;SDS011;31365;48.858;8.530;2023-03-12T13:35:32;9.00;;;2.90;;
45650;SDS011;31365;48.858;8.530;2023-03-12T13:38:05;7.00;;;3.93;;
45650;SDS011;31365;48.858;8.530;2023-03-12T13:40:51;9.37;;;3.47;;
45650;SDS011;31365;48.858;8.530;2023-03-12T13:46:21;11.20;;;4.13;;
45650;SDS011;31365;48.858;8.530;2023-03-12T13:49:11;6.87;;;2.83;;
45650;SDS011;31365;48.858;8.530;2023-03-12T13:51:50;7.63;;;3.00;;
45650;SDS011;31365;48.858;8.530;2023-03-12T13:54:48;7.10;;;2.47;;
45650;SDS011;31365;48.858;8.530;2023-03-12T13:57:29;7.67;;;3.10;;
45650;SDS011;31365;48.858;8.530;2023-03-12T14:00:10;6.63;;;3.57;;
45650;SDS011;31365;48.858;8.530;2023-03-12T14:02:47;9.73;;;4.37;;
45650;SDS011;31365;48.858;8.530;2023-03-12T14:05:19;7.87;;;2.87;;
45650;SDS011;31365;48.858;8.530;2023-03-12T14:07:53;7.43;;;3.70;;
45650;SDS011;31365;48.858;8.530;2023-03-12T14:10:41;8.60;;;2.73;;
45650;SDS011;31365;48.858;8.530;2023-03-12T14:13:29;7.13;;;2.80;;
45650;SDS011;31365;48.858;8.530;2023-03-12T14:16:14;6.07;;;2.70;;
45650;SDS011;31365;48.858;8.530;2023-03-12T14:18:52;10.27;;;2.67;;
45650;SDS011;31365;48.858;8.530;2023-03-12T14:21:21;3.85;;;2.22;;
45650;SDS011;31365;48.858;8.530;2023-03-12T14:23:56;3.72;;;2.30;;
45650;SDS011;31365;48.858;8.530;2023-03-12T14:26:27;6.70;;;2.65;;
45650;SDS011;31365;48.858;8.530;2023-03-12T14:29:00;5.28;;;2.40;;
45650;SDS011;31365;48.858;8.530;2023-03-12T14:31:37;5.40;;;2.35;;
45650;SDS011;31365;48.858;8.530;2023-03-12T14:34:07;6.05;;;2.17;;
45650;SDS011;31365;48.858;8.530;2023-03-12T14:36:46;7.32;;;3.30;;
45650;SDS011;31365;48.858;8.530;2023-03-12T14:39:26;7.80;;;2.90;;
45650;SDS011;31365;48.858;8.530;2023-03-12T14:42:01;4.20;;;2.22;;
45650;SDS011;31365;48.858;8.530;2023-03-12T14:44:33;5.07;;;2.80;;
45650;SDS011;31365;48.858;8.530;2023-03-12T14:47:07;7.75;;;2.78;;
45650;SDS011;31365;48.858;8.530;2023-03-12T14:49:38;6.47;;;2.50;;
45650;SDS011;31365;48.858;8.530;2023-03-12T14:52:10;6.50;;;2.47;;
45650;SDS011;31365;48.858;8.530;2023-03-12T14:54:39;3.97;;;2.07;;
45650;SDS011;31365;48.858;8.530;2023-03-12T14:57:21;4.37;;;2.27;;
45650;SDS011;31365;48.858;8.530;2023-03-12T14:59:53;6.13;;;3.37;;
45650;SDS011;31365;48.858;8.530;2023-03-12T15:02:26;8.27;;;3.57;;
45650;SDS011;31365;48.858;8.530;2023-03-12T15:04:58;6.63;;;2.93;;
45650;SDS011;31365;48.858;8.530;2023-03-12T15:07:29;8.70;;;3.10;;
45650;SDS011;31365;48.858;8.530;2023-03-12T15:10:04;10.67;;;4.37;;
45650;SDS011;31365;48.858;8.530;2023-03-12T15:12:43;8.40;;;3.50;;
45650;SDS011;31365;48.858;8.530;2023-03-12T15:15:21;9.07;;;3.53;;
45650;SDS011;31365;48.858;8.530;2023-03-12T15:18:03;7.37;;;3.73;;
45650;SDS011;31365;48.858;8.530;2023-03-12T15:20:34;12.50;;;5.40;;
45650;SDS011;31365;48.858;8.530;2023-03-12T15:23:03;10.53;;;4.43;;
45650;SDS011;31365;48.858;8.530;2023-03-12T15:25:35;10.20;;;6.23;;
45650;SDS011;31365;48.858;8.530;2023-03-12T15:28:05;8.17;;;2.93;;
45650;SDS011;31365;48.858;8.530;2023-03-12T15:31:03;10.93;;;3.43;;
45650;SDS011;31365;48.858;8.530;2023-03-12T15:33:40;7.87;;;3.97;;
45650;SDS011;31365;48.858;8.530;2023-03-12T15:36:21;6.77;;;3.37;;
45650;SDS011;31365;48.858;8.530;2023-03-12T15:38:54;7.80;;;3.87;;
45650;SDS011;31365;48.858;8.530;2023-03-12T15:41:31;7.47;;;4.60;;
45650;SDS011;31365;48.858;8.530;2023-03-12T15:44:16;8.67;;;4.80;;
45650;SDS011;31365;48.858;8.530;2023-03-12T15:46:48;10.37;;;4.67;;
45650;SDS011;31365;48.858;8.530;2023-03-12T15:49:21;10.97;;;5.13;;
45650;SDS011;31365;48.858;8.530;2023-03-12T15:52:05;9.90;;;3.00;;
45650;SDS011;31365;48.858;8.530;2023-03-12T15:54:59;4.23;;;2.27;;
45650;SDS011;31365;48.858;8.530;2023-03-12T15:57:48;8.37;;;3.00;;
45650;SDS011;31365;48.858;8.530;2023-03-12T16:00:21;8.17;;;3.07;;
45650;SDS011;31365;48.858;8.530;2023-03-12T16:02:57;6.40;;;3.70;;
45650;SDS011;31365;48.858;8.530;2023-03-12T16:05:31;9.30;;;3.30;;
45650;SDS011;31365;48.858;8.530;2023-03-12T16:08:09;7.80;;;3.67;;
45650;SDS011;31365;48.858;8.530;2023-03-12T16:10:42;9.27;;;3.13;;
45650;SDS011;31365;48.858;8.530;2023-03-12T17:31:04;10.10;;;3.50;;
45650;SDS011;31365;48.858;8.530;2023-03-12T17:33:53;13.30;;;3.77;;
45650;SDS011;31365;48.858;8.530;2023-03-12T17:36:21;10.70;;;4.70;;
45650;SDS011;31365;48.858;8.530;2023-03-12T17:38:50;7.60;;;3.73;;
45650;SDS011;31365;48.858;8.530;2023-03-12T17:41:18;13.60;;;4.10;;
45650;SDS011;31365;48.858;8.530;2023-03-12T17:43:52;8.70;;;5.17;;
45650;SDS011;31365;48.858;8.530;2023-03-12T17:46:25;12.40;;;5.10;;
45650;SDS011;31365;48.858;8.530;2023-03-12T17:48:56;12.40;;;5.07;;
45650;SDS011;31365;48.858;8.530;2023-03-12T17:51:24;6.83;;;2.93;;
45650;SDS011;31365;48.858;8.530;2023-03-12T17:54:12;10.03;;;4.63;;
45650;SDS011;31365;48.858;8.530;2023-03-12T17:56:40;10.13;;;4.87;;
45650;SDS011;31365;48.858;8.530;2023-03-12T17:59:08;7.83;;;3.27;;
45650;SDS011;31365;48.858;8.530;2023-03-12T18:01:38;11.97;;;3.60;;
45650;SDS011;31365;48.858;8.530;2023-03-12T18:04:06;10.17;;;4.40;;
45650;SDS011;31365;48.858;8.530;2023-03-12T18:06:35;10.90;;;4.27;;
45650;SDS011;31365;48.858;8.530;2023-03-12T18:09:03;11.70;;;4.70;;
45650;SDS011;31365;48.858;8.530;2023-03-12T18:11:52;8.83;;;3.77;;
45650;SDS011;31365;48.858;8.530;2023-03-12T18:14:20;9.00;;;3.63;;
45650;SDS011;31365;48.858;8.530;2023-03-12T18:16:51;7.93;;;4.60;;
45650;SDS011;31365;48.858;8.530;2023-03-12T18:19:19;12.87;;;4.40;;
45650;SDS011;31365;48.858;8.530;2023-03-12T18:21:49;7.67;;;3.30;;
45650;SDS011;31365;48.858;8.530;2023-03-12T18:24:17;8.13;;;3.40;;
45650;SDS011;31365;48.858;8.530;2023-03-12T18:26:46;11.83;;;4.53;;
45650;SDS011;31365;48.858;8.530;2023-03-12T18:29:15;6.47;;;3.50;;
45650;SDS011;31365;48.858;8.530;2023-03-12T18:31:44;5.90;;;3.40;;
45650;SDS011;31365;48.858;8.530;2023-03-12T18:34:34;10.30;;;4.27;;
45650;SDS011;31365;48.858;8.530;2023-03-12T18:37:06;7.57;;;3.33;;
45650;SDS011;31365;48.858;8.530;2023-03-12T18:39:35;9.90;;;3.50;;
45650;SDS011;31365;48.858;8.530;2023-03-12T18:42:03;10.53;;;3.83;;
45650;SDS011;31365;48.858;8.530;2023-03-12T18:44:33;8.73;;;3.37;;
45650;SDS011;31365;48.858;8.530;2023-03-12T18:47:01;13.60;;;7.50;;
45650;SDS011;31365;48.858;8.530;2023-03-12T18:49:29;16.50;;;6.50;;
45650;SDS011;31365;48.858;8.530;2023-03-12T18:51:59;12.17;;;5.47;;
45650;SDS011;31365;48.858;8.530;2023-03-12T18:54:27;8.63;;;3.30;;
45650;SDS011;31365;48.858;8.530;2023-03-12T18:56:56;7.07;;;3.23;;
45650;SDS011;31365;48.858;8.530;2023-03-12T18:59:27;8.57;;;3.43;;
45650;SDS011;31365;48.858;8.530;2023-03-12T19:01:57;10.87;;;3.60;;
45650;SDS011;31365;48.858;8.530;2023-03-12T19:04:28;7.23;;;2.83;;
45650;SDS011;31365;48.858;8.530;2023-03-12T19:06:59;7.50;;;3.00;;
45650;SDS011;31365;48.858;8.530;2023-03-12T19:09:28;9.23;;;3.10;;
45650;SDS011;31365;48.858;8.530;2023-03-12T19:11:58;6.20;;;2.33;;
45650;SDS011;31365;48.858;8.530;2023-03-12T19:14:27;8.60;;;3.13;;
45650;SDS011;31365;48.858;8.530;2023-03-12T19:16:57;10.83;;;2.80;;
45650;SDS011;31365;48.858;8.530;2023-03-12T19:19:25;6.60;;;2.53;;
45650;SDS011;31365;48.858;8.530;2023-03-12T19:21:53;8.87;;;2.67;;
45650;SDS011;31365;48.858;8.530;2023-03-12T19:24:24;8.60;;;3.00;;
45650;SDS011;31365;48.858;8.530;2023-03-12T19:26:52;9.53;;;4.80;;
45650;SDS011;31365;48.858;8.530;2023-03-12T19:29:20;8.43;;;3.10;;
45650;SDS011;31365;48.858;8.530;2023-03-12T19:31:48;10.20;;;3.17;;
45650;SDS011;31365;48.858;8.530;2023-03-12T19:34:17;7.30;;;2.50;;
45650;SDS011;31365;48.858;8.530;2023-03-12T19:36:48;6.50;;;2.80;;
45650;SDS011;31365;48.858;8.530;2023-03-12T19:39:16;8.20;;;3.37;;
45650;SDS011;31365;48.858;8.530;2023-03-12T19:41:48;10.90;;;4.13;;
45650;SDS011;31365;48.858;8.530;2023-03-12T19:44:16;8.03;;;2.93;;
45650;SDS011;31365;48.858;8.530;2023-03-12T19:46:45;8.53;;;3.00;;
45650;SDS011;31365;48.858;8.530;2023-03-12T19:49:13;7.83;;;3.40;;
45650;SDS011;31365;48.858;8.530;2023-03-12T19:51:42;8.77;;;3.30;;
45650;SDS011;31365;48.858;8.530;2023-03-12T19:54:10;7.50;;;2.63;;
45650;SDS011;31365;48.858;8.530;2023-03-12T19:56:38;8.20;;;3.67;;
45650;SDS011;31365;48.858;8.530;2023-03-12T19:59:08;10.30;;;2.87;;
45650;SDS011;31365;48.858;8.530;2023-03-12T20:01:37;9.30;;;3.80;;
45650;SDS011;31365;48.858;8.530;2023-03-12T20:04:06;9.17;;;2.70;;
45650;SDS011;31365;48.858;8.530;2023-03-12T20:06:36;5.83;;;2.30;;
45650;SDS011;31365;48.858;8.530;2023-03-12T20:09:05;8.87;;;2.87;;
45650;SDS011;31365;48.858;8.530;2023-03-12T20:11:34;9.83;;;3.67;;
45650;SDS011;31365;48.858;8.530;2023-03-12T20:14:03;7.30;;;3.07;;
45650;SDS011;31365;48.858;8.530;2023-03-12T20:16:33;6.77;;;2.90;;
45650;SDS011;31365;48.858;8.530;2023-03-12T20:19:02;7.53;;;2.60;;